createdAt,value
2018-07-25T00:01:58.890Z,95336.91
2018-07-25T00:04:27.963Z,95340.89
2018-07-25T00:06:57.013Z,95340.52
2018-07-25T00:09:26.091Z,95343.65
2018-07-25T00:14:32.928Z,95337.33
2018-07-25T00:17:01.991Z,95334.89
2018-07-25T00:19:32.007Z,95335.07
2018-07-25T00:24:36.869Z,95330.38
2018-07-25T00:29:42.620Z,95337.84
2018-07-25T00:34:47.389Z,95333.44
2018-07-25T00:37:17.391Z,95333.17
2018-07-25T00:39:46.522Z,95332.85
2018-07-25T00:42:17.530Z,95332.30
2018-07-25T00:44:46.590Z,95330.76
2018-07-25T00:47:15.662Z,95341.71
2018-07-25T00:54:58.267Z,95330.91
2018-07-25T00:57:28.286Z,95336.14
2018-07-25T00:59:57.393Z,95332.64
2018-07-25T01:02:26.451Z,95330.52
2018-07-25T01:07:34.259Z,95330.64
2018-07-25T01:10:03.319Z,95331.52
2018-07-25T01:12:32.373Z,95332.85
2018-07-25T01:15:01.472Z,95337.17
2018-07-25T01:17:30.521Z,95338.99
2018-07-25T01:19:59.630Z,95338.09
2018-07-25T01:25:06.593Z,95342.28
2018-07-25T01:27:35.658Z,95339.31
2018-07-25T01:30:04.726Z,95333.89
2018-07-25T01:32:33.786Z,95335.65
2018-07-25T01:35:02.899Z,95339.23
2018-07-25T01:37:31.936Z,95341.37
2018-07-25T01:40:01.060Z,95337.63
2018-07-25T01:42:30.111Z,95342.84
2018-07-25T01:47:35.027Z,95344.39
2018-07-25T01:50:04.097Z,95344.27
2018-07-25T01:52:34.168Z,95346.83
2018-07-25T01:57:39.050Z,95342.60
2018-07-25T02:00:08.128Z,95344.63
2018-07-25T02:02:37.209Z,95338.22
2018-07-25T02:05:08.308Z,95342.64
2018-07-25T02:07:37.378Z,95346.36
2018-07-25T02:14:08.386Z,95340.13
2018-07-25T02:16:37.449Z,95343.02
2018-07-25T02:19:06.679Z,95343.02
2018-07-25T02:21:35.758Z,95344.59
2018-07-25T02:24:04.862Z,95343.64
2018-07-25T02:26:33.914Z,95341.45
2018-07-25T02:31:38.753Z,95343.06
2018-07-25T02:36:43.613Z,95349.13
2018-07-25T02:39:12.689Z,95353.83
2018-07-25T02:41:41.752Z,95353.34
2018-07-25T02:44:10.830Z,95355.19
2018-07-25T02:46:39.885Z,95357.19
2018-07-25T02:49:08.949Z,95364.80
2018-07-25T02:51:38.018Z,95360.39
2018-07-25T02:54:07.077Z,95364.64
2018-07-25T02:59:11.396Z,95365.91
2018-07-25T03:01:40.451Z,95365.55
2018-07-25T03:04:10.446Z,95367.50
2018-07-25T03:09:15.329Z,95367.30
2018-07-25T03:11:44.448Z,95371.95
2018-07-25T03:14:13.511Z,95373.87
2018-07-25T03:16:42.650Z,95375.61
2018-07-25T03:19:11.681Z,95375.69
2018-07-25T03:21:40.740Z,95381.47
2018-07-25T03:24:09.805Z,95380.57
2018-07-25T03:26:38.891Z,95380.73
2018-07-25T03:29:07.929Z,95378.85
2018-07-25T03:31:37.075Z,95381.85
2018-07-25T03:39:18.517Z,95377.81
2018-07-25T03:41:47.569Z,95378.31
2018-07-25T03:44:16.626Z,95378.92
2018-07-25T03:46:49.085Z,95381.70
2018-07-25T03:49:19.108Z,95376.98
2018-07-25T03:51:48.175Z,95384.66
2018-07-25T03:54:17.493Z,95384.58
2018-07-25T03:59:22.319Z,95385.27
2018-07-25T04:01:51.575Z,95389.18
2018-07-25T04:04:20.628Z,95391.55
2018-07-25T04:06:49.704Z,95391.59
2018-07-25T04:09:18.830Z,95399.52
2018-07-25T04:16:59.265Z,95397.59
2018-07-25T04:19:32.897Z,95396.38
2018-07-25T04:22:02.942Z,95397.53
2018-07-25T04:24:33.976Z,95396.72
2018-07-25T04:27:03.029Z,95394.56
2018-07-25T04:29:32.067Z,95398.23
2018-07-25T04:32:01.352Z,95402.04
2018-07-25T04:34:30.433Z,95400.38
2018-07-25T04:36:59.513Z,95402.55
2018-07-25T04:42:04.303Z,95406.20
2018-07-25T04:47:09.162Z,95403.24
2018-07-25T04:49:40.204Z,95405.25
2018-07-25T04:52:09.276Z,95407.73
2018-07-25T04:54:38.616Z,95407.48
2018-07-25T04:57:07.677Z,95408.23
2018-07-25T04:59:36.744Z,95409.23
2018-07-25T05:02:06.028Z,95412.02
2018-07-25T05:04:35.089Z,95407.34
2018-07-25T05:07:05.160Z,95404.81
2018-07-25T05:09:34.157Z,95409.89
2018-07-25T05:12:03.682Z,95408.20
2018-07-25T05:14:32.727Z,95406.25
2018-07-25T05:19:37.782Z,95409.62
2018-07-25T05:27:21.379Z,95421.73
2018-07-25T05:29:53.706Z,95417.73
2018-07-25T05:32:22.760Z,95420.70
2018-07-25T05:34:51.993Z,95421.69
2018-07-25T05:37:22.304Z,95429.45
2018-07-25T05:39:51.452Z,95430.16
2018-07-25T05:44:56.313Z,95427.27
2018-07-25T05:50:01.162Z,95431.70
2018-07-25T05:57:58.062Z,95438.87
2018-07-25T06:00:50.670Z,95435.22
2018-07-25T06:03:27.437Z,95432.25
2018-07-25T06:06:04.959Z,95434.13
2018-07-25T06:08:37.884Z,95431.30
2018-07-25T06:13:45.563Z,95434.31
2018-07-25T06:16:16.758Z,95439.95
2018-07-25T06:18:46.920Z,95439.19
2018-07-25T06:21:30.906Z,95440.83
2018-07-25T06:26:35.826Z,95441.56
2018-07-25T06:29:04.894Z,95445.45
2018-07-25T06:31:37.275Z,95440.99
2018-07-25T06:34:06.341Z,95443.89
2018-07-25T06:36:43.671Z,95441.08
2018-07-25T06:41:49.179Z,95446.72
2018-07-25T06:44:18.241Z,95443.50
2018-07-25T06:46:50.689Z,95448.97
2018-07-25T06:51:55.561Z,95449.93
2018-07-25T06:54:25.536Z,95448.83
2018-07-25T06:59:30.322Z,95450.36
2018-07-25T07:02:00.325Z,95452.59
2018-07-25T07:04:29.722Z,95451.13
2018-07-25T07:06:59.826Z,95452.88
2018-07-25T07:12:04.931Z,95457.11
2018-07-25T07:14:33.900Z,95450.30
2018-07-25T07:17:02.976Z,95453.77
2018-07-25T07:22:08.788Z,95450.41
2018-07-25T07:27:13.641Z,95449.47
2018-07-25T07:29:42.710Z,95451.48
2018-07-25T07:34:47.496Z,95455.25
2018-07-25T07:37:18.118Z,95453.28
2018-07-25T07:39:47.176Z,95451.31
2018-07-25T07:42:16.234Z,95450.73
2018-07-25T07:44:45.693Z,95449.85
2018-07-25T07:47:14.946Z,95451.75
2018-07-25T07:49:44.941Z,95447.12
2018-07-25T07:57:25.903Z,95447.29
2018-07-25T07:59:55.037Z,95443.16
2018-07-25T08:02:24.097Z,95447.62
2018-07-25T08:04:53.209Z,95450.10
2018-07-25T08:09:58.030Z,95450.16
2018-07-25T08:12:27.649Z,95448.41
2018-07-25T08:14:56.711Z,95449.77
2018-07-25T08:20:01.700Z,95447.90
2018-07-25T08:22:30.665Z,95440.45
2018-07-25T08:25:03.549Z,95439.23
2018-07-25T08:27:35.508Z,95441.53
2018-07-25T08:32:40.887Z,95437.39
2018-07-25T08:35:10.125Z,95440.70
2018-07-25T08:37:39.393Z,95443.17
2018-07-25T08:40:08.490Z,95437.26
2018-07-25T08:42:39.535Z,95433.05
2018-07-25T08:45:09.545Z,95435.73
2018-07-25T08:50:14.449Z,95444.05
2018-07-25T08:52:43.693Z,95440.89
2018-07-25T08:55:12.744Z,95440.91
2018-07-25T08:57:41.824Z,95441.91
2018-07-25T09:00:15.297Z,95444.52
2018-07-25T09:05:20.270Z,95445.48
2018-07-25T09:07:50.280Z,95442.27
2018-07-25T09:10:19.522Z,95442.54
2018-07-25T09:12:48.658Z,95444.79
2018-07-25T09:17:55.823Z,95441.92
2018-07-25T09:20:29.221Z,95441.02
2018-07-25T09:22:58.286Z,95439.59
2018-07-25T09:25:28.309Z,95437.64
2018-07-25T09:27:57.354Z,95435.50
2018-07-25T09:33:02.198Z,95425.09
2018-07-25T09:35:31.509Z,95424.25
2018-07-25T09:38:00.548Z,95424.48
2018-07-25T09:40:29.594Z,95418.05
2018-07-25T09:42:58.861Z,95421.34
2018-07-25T09:45:27.921Z,95418.05
2018-07-25T09:47:56.986Z,95418.49
2018-07-25T09:50:26.365Z,95423.30
2018-07-25T09:52:55.633Z,95422.91
2018-07-25T09:55:24.642Z,95423.38
2018-07-25T09:57:53.673Z,95419.14
2018-07-25T10:00:24.346Z,95410.91
2018-07-25T10:02:53.408Z,95409.39
2018-07-25T10:05:22.467Z,95409.77
2018-07-25T10:10:30.511Z,95409.62
2018-07-25T10:12:59.564Z,95405.44
2018-07-25T10:18:04.490Z,95397.02
2018-07-25T10:20:35.546Z,95393.30
2018-07-25T10:23:04.610Z,95390.17
2018-07-25T10:25:34.646Z,95389.25
2018-07-25T10:28:03.700Z,95390.50
2018-07-25T10:30:32.809Z,95394.70
2018-07-25T10:33:02.120Z,95394.58
2018-07-25T10:35:31.116Z,95391.94
2018-07-25T10:38:00.166Z,95385.98
2018-07-25T10:40:29.375Z,95382.69
2018-07-25T10:42:58.632Z,95384.43
2018-07-25T10:45:27.685Z,95379.38
2018-07-25T10:47:56.732Z,95376.60
2018-07-25T10:50:25.776Z,95379.41
2018-07-25T10:52:54.867Z,95384.45
2018-07-25T10:55:23.910Z,95383.38
2018-07-25T10:57:53.279Z,95374.61
2018-07-25T11:00:22.345Z,95378.84
2018-07-25T11:02:51.400Z,95389.36
2018-07-25T11:05:20.917Z,95386.48
2018-07-25T11:07:50.964Z,95380.84
2018-07-25T11:10:22.042Z,95372.86
2018-07-25T11:12:52.029Z,95372.41
2018-07-25T11:15:21.108Z,95370.39
2018-07-25T11:17:50.347Z,95363.86
2018-07-25T11:20:19.538Z,95365.89
2018-07-25T11:22:48.831Z,95372.16
2018-07-25T11:25:18.944Z,95370.28
2018-07-25T11:27:48.001Z,95370.84
2018-07-25T11:32:53.040Z,95366.94
2018-07-25T11:37:57.714Z,95365.53
2018-07-25T11:40:26.772Z,95362.36
2018-07-25T11:42:56.882Z,95358.82
2018-07-25T11:45:26.233Z,95360.16
2018-07-25T11:50:31.355Z,95354.47
2018-07-25T11:53:00.421Z,95342.30
2018-07-25T11:55:29.534Z,95349.61
2018-07-25T11:57:59.622Z,95348.32
2018-07-25T12:00:28.677Z,95351.10
2018-07-25T12:05:33.572Z,95341.97
2018-07-25T12:08:02.598Z,95340.84
2018-07-25T12:10:32.660Z,95338.22
2018-07-25T12:13:01.859Z,95331.77
2018-07-25T12:15:30.894Z,95322.88
2018-07-25T12:18:00.847Z,95323.91
2018-07-25T12:20:30.146Z,95315.27
2018-07-25T12:22:59.381Z,95317.59
2018-07-25T12:25:28.444Z,95318.94
2018-07-25T12:27:57.491Z,95316.80
2018-07-25T12:33:03.243Z,95321.04
2018-07-25T12:35:35.325Z,95321.05
2018-07-25T12:38:04.368Z,95317.19
2018-07-25T12:40:33.408Z,95318.63
2018-07-25T12:43:02.461Z,95317.91
2018-07-25T12:45:31.614Z,95320.44
2018-07-25T12:48:00.661Z,95324.34
2018-07-25T12:50:29.734Z,95321.51
2018-07-25T12:52:58.887Z,95315.87
2018-07-25T12:55:28.345Z,95309.67
2018-07-25T12:57:59.833Z,95307.86
2018-07-25T13:00:28.913Z,95305.36
2018-07-25T13:02:57.967Z,95294.33
2018-07-25T13:05:27.189Z,95294.56
2018-07-25T13:10:33.442Z,95295.50
2018-07-25T13:13:02.445Z,95296.00
2018-07-25T13:15:31.514Z,95294.78
2018-07-25T13:18:00.576Z,95289.67
2018-07-25T13:20:29.794Z,95289.20
2018-07-25T13:22:58.886Z,95291.14
2018-07-25T13:25:27.900Z,95288.27
2018-07-25T13:27:57.158Z,95291.12
2018-07-25T13:33:02.133Z,95282.39
2018-07-25T13:35:31.231Z,95280.06
2018-07-25T13:40:37.629Z,95283.27
2018-07-25T13:43:06.693Z,95277.73
2018-07-25T13:45:35.843Z,95272.24
2018-07-25T13:48:05.241Z,95276.10
2018-07-25T13:50:34.288Z,95264.06
2018-07-25T13:53:03.349Z,95267.23
2018-07-25T13:55:36.328Z,95258.70
2018-07-25T13:58:06.735Z,95258.77
2018-07-25T14:03:13.041Z,95262.38
2018-07-25T14:05:42.086Z,95270.44
2018-07-25T14:08:11.151Z,95263.44
2018-07-25T14:10:41.228Z,95261.14
2018-07-25T14:13:10.744Z,95255.53
2018-07-25T14:15:40.737Z,95262.77
2018-07-25T14:18:09.889Z,95264.26
2018-07-25T14:20:39.060Z,95262.20
2018-07-25T14:23:10.594Z,95255.50
2018-07-25T14:25:39.641Z,95249.42
2018-07-25T14:28:08.697Z,95255.27
2018-07-25T14:30:37.789Z,95250.31
2018-07-25T14:33:07.068Z,95262.98
2018-07-25T14:35:37.115Z,95257.27
2018-07-25T14:38:08.171Z,95251.89
2018-07-25T14:40:37.232Z,95254.08
2018-07-25T14:43:07.287Z,95253.09
2018-07-25T14:45:36.762Z,95247.61
2018-07-25T14:48:06.819Z,95244.80
2018-07-25T14:50:35.864Z,95251.65
2018-07-25T14:53:04.928Z,95254.39
2018-07-25T14:55:34.892Z,95261.04
2018-07-25T14:58:03.977Z,95259.32
2018-07-25T15:00:33.057Z,95252.02
2018-07-25T15:03:02.194Z,95252.50
2018-07-25T15:05:31.232Z,95245.00
2018-07-25T15:08:00.289Z,95245.07
2018-07-25T15:10:29.359Z,95242.02
2018-07-25T15:12:58.860Z,95235.06
2018-07-25T15:15:27.924Z,95244.59
2018-07-25T15:17:56.981Z,95252.05
2018-07-25T15:23:02.009Z,95250.39
2018-07-25T15:25:31.062Z,95246.36
2018-07-25T15:28:01.227Z,95238.39
2018-07-25T15:30:32.608Z,95236.20
2018-07-25T15:33:06.685Z,95230.35
2018-07-25T15:38:11.545Z,95241.58
2018-07-25T15:40:42.733Z,95233.23
2018-07-25T15:43:12.877Z,95240.27
2018-07-25T15:45:41.913Z,95238.64
2018-07-25T15:50:52.476Z,95244.90
2018-07-25T15:53:21.660Z,95244.81
2018-07-25T15:55:50.702Z,95243.49
2018-07-25T16:00:55.618Z,95239.30
2018-07-25T16:03:24.809Z,95236.30
2018-07-25T16:05:53.839Z,95229.70
2018-07-25T16:08:24.065Z,95225.45
2018-07-25T16:10:54.155Z,95222.02
2018-07-25T16:13:24.232Z,95221.41
2018-07-25T16:15:53.273Z,95230.19
2018-07-25T16:18:22.673Z,95227.06
2018-07-25T16:20:51.717Z,95227.66
2018-07-25T16:23:20.792Z,95229.20
2018-07-25T16:25:49.851Z,95232.14
2018-07-25T16:28:19.170Z,95232.55
2018-07-25T16:30:48.234Z,95235.84
2018-07-25T16:33:17.307Z,95234.92
2018-07-25T16:35:48.356Z,95235.63
2018-07-25T16:38:17.408Z,95236.11
2018-07-25T16:40:46.469Z,95246.02
2018-07-25T16:43:15.551Z,95259.34
2018-07-25T16:45:44.901Z,95280.40
2018-07-25T16:48:15.936Z,95289.33
2018-07-25T16:50:47.037Z,95276.50
2018-07-25T16:53:16.149Z,95275.81
2018-07-25T16:55:46.166Z,95281.45
2018-07-25T16:58:15.578Z,95284.80
2018-07-25T17:00:44.664Z,95294.89
2018-07-25T17:03:13.718Z,95295.53
2018-07-25T17:08:18.556Z,95309.91
2018-07-25T17:10:47.816Z,95308.30
2018-07-25T17:13:16.995Z,95297.95
2018-07-25T17:15:46.044Z,95301.33
2018-07-25T17:18:15.097Z,95294.79
2018-07-25T17:20:45.341Z,95294.81
2018-07-25T17:25:50.212Z,95289.25
2018-07-25T17:28:29.833Z,95295.34
2018-07-25T17:33:41.355Z,95301.65
2018-07-25T17:36:19.478Z,95307.89
2018-07-25T17:38:52.534Z,95316.08
2018-07-25T17:43:57.407Z,95315.86
2018-07-25T17:46:26.485Z,95313.98
2018-07-25T17:48:55.519Z,95321.25
2018-07-25T17:51:41.757Z,95320.25
2018-07-25T17:54:14.507Z,95317.96
2018-07-25T17:56:43.585Z,95322.18
2018-07-25T17:59:14.614Z,95325.44
2018-07-25T18:01:43.674Z,95323.69
2018-07-25T18:04:13.049Z,95331.29
2018-07-25T18:06:42.119Z,95349.67
2018-07-25T18:11:47.982Z,95353.97
2018-07-25T18:14:17.036Z,95358.87
2018-07-25T18:16:46.110Z,95360.28
2018-07-25T18:19:15.179Z,95357.02
2018-07-25T18:21:46.121Z,95353.50
2018-07-25T18:24:15.229Z,95357.91
2018-07-25T18:29:20.149Z,95353.08
2018-07-25T18:31:50.089Z,95346.69
2018-07-25T18:34:20.113Z,95343.08
2018-07-25T18:36:49.162Z,95345.55
2018-07-25T18:39:21.963Z,95349.03
2018-07-25T18:41:51.014Z,95349.21
2018-07-25T18:44:20.112Z,95350.16
2018-07-25T18:49:24.975Z,95350.52
2018-07-25T18:51:54.062Z,95358.17
2018-07-25T18:54:23.317Z,95360.68
2018-07-25T18:59:28.139Z,95381.84
2018-07-25T19:01:57.263Z,95388.19
2018-07-25T19:04:26.257Z,95398.88
2018-07-25T19:06:56.313Z,95402.42
2018-07-25T19:09:25.369Z,95387.30
2018-07-25T19:11:54.426Z,95372.80
2018-07-25T19:16:59.211Z,95364.58
2018-07-25T19:19:28.285Z,95356.27
2018-07-25T19:21:58.295Z,95339.50
2018-07-25T19:24:27.337Z,95343.41
2018-07-25T19:26:56.421Z,95351.58
2018-07-25T19:29:27.437Z,95359.41
2018-07-25T19:31:56.621Z,95353.84
2018-07-25T19:34:25.680Z,95355.55
2018-07-25T19:36:54.733Z,95354.67
2018-07-25T19:39:27.109Z,95357.70
2018-07-25T19:44:31.997Z,95350.55
2018-07-25T19:47:02.170Z,95356.72
2018-07-25T19:49:31.239Z,95356.59
2018-07-25T19:52:00.284Z,95354.59
2018-07-25T19:54:30.379Z,95360.71
2018-07-25T19:56:59.353Z,95362.45
2018-07-25T19:59:28.403Z,95364.03
2018-07-25T20:01:57.489Z,95367.05
2018-07-25T20:04:26.545Z,95372.22
2018-07-25T20:06:55.653Z,95369.77
2018-07-25T20:09:24.651Z,95373.62
2018-07-25T20:11:53.699Z,95370.75
2018-07-25T20:19:34.330Z,95377.19
2018-07-25T20:22:03.382Z,95379.69
2018-07-25T20:24:32.452Z,95380.86
2018-07-25T20:27:02.417Z,95379.95
2018-07-25T20:29:31.567Z,95381.40
2018-07-25T20:32:00.577Z,95382.83
2018-07-25T20:34:29.630Z,95384.91
2018-07-25T20:36:58.714Z,95383.84
2018-07-25T20:39:27.817Z,95388.77
2018-07-25T20:41:57.816Z,95388.98
2018-07-25T20:44:26.878Z,95392.45
2018-07-25T20:46:55.977Z,95391.81
2018-07-25T20:49:26.164Z,95395.38
2018-07-25T20:51:57.636Z,95397.59
2018-07-25T20:59:38.267Z,95407.84
2018-07-25T21:02:07.306Z,95416.33
2018-07-25T21:04:36.348Z,95413.37
2018-07-25T21:07:05.412Z,95408.38
2018-07-25T21:09:36.459Z,95409.28
2018-07-25T21:12:05.640Z,95418.83
2018-07-25T21:14:35.673Z,95421.90
2018-07-25T21:17:04.728Z,95413.84
2018-07-25T21:19:33.777Z,95420.13
2018-07-25T21:24:38.547Z,95428.44
2018-07-25T21:27:07.665Z,95428.69
2018-07-25T21:29:37.636Z,95429.58
2018-07-25T21:32:08.691Z,95428.60
2018-07-25T21:34:38.705Z,95426.13
2018-07-25T21:37:09.745Z,95433.01
2018-07-25T21:39:38.851Z,95433.94
2018-07-25T21:42:08.078Z,95435.02
2018-07-25T21:47:20.205Z,95435.63
2018-07-25T21:49:49.687Z,95432.06
2018-07-25T21:52:18.762Z,95425.20
2018-07-25T21:57:24.550Z,95426.81
2018-07-25T21:59:53.613Z,95426.39
2018-07-25T22:02:22.677Z,95435.20
2018-07-25T22:04:52.669Z,95436.38
2018-07-25T22:07:21.740Z,95436.05
2018-07-25T22:09:50.834Z,95438.55
2018-07-25T22:12:19.897Z,95437.54
2018-07-25T22:14:49.021Z,95435.74
2018-07-25T22:17:18.146Z,95434.98
2018-07-25T22:19:47.347Z,95435.53
2018-07-25T22:24:52.137Z,95432.41
2018-07-25T22:29:57.017Z,95426.86
2018-07-25T22:32:26.083Z,95420.75
2018-07-25T22:37:30.946Z,95420.41
2018-07-25T22:40:00.015Z,95419.97
2018-07-25T22:42:29.087Z,95419.66
2018-07-25T22:44:58.150Z,95419.09
2018-07-25T22:47:30.994Z,95419.10
2018-07-25T22:50:00.054Z,95415.95
2018-07-25T22:52:29.105Z,95417.63
2018-07-25T22:55:02.193Z,95411.42
2018-07-25T22:57:32.250Z,95408.75
2018-07-25T23:00:01.448Z,95408.78
2018-07-25T23:02:30.505Z,95406.64
2018-07-25T23:04:59.630Z,95412.17
2018-07-25T23:07:28.707Z,95411.30
2018-07-25T23:09:57.756Z,95409.11
2018-07-25T23:12:27.869Z,95411.55
2018-07-25T23:14:57.869Z,95411.22
2018-07-25T23:17:26.926Z,95407.75
2018-07-25T23:19:56.046Z,95411.33
2018-07-25T23:22:27.009Z,95414.52
2018-07-25T23:24:56.065Z,95414.72
2018-07-25T23:27:26.105Z,95412.25
2018-07-25T23:32:31.892Z,95411.77
2018-07-25T23:35:01.917Z,95412.38
2018-07-25T23:37:32.989Z,95411.77
2018-07-25T23:40:02.058Z,95408.74
2018-07-25T23:42:34.890Z,95407.38
2018-07-25T23:45:03.962Z,95401.97
2018-07-25T23:47:33.045Z,95405.02
2018-07-25T23:50:02.127Z,95410.41
2018-07-25T23:52:33.206Z,95405.78
2018-07-25T23:55:02.274Z,95403.58
2018-07-25T23:57:31.340Z,95407.62
